Terminal Aerodrome Forecast
Issued by NWS

Home | Current Version | Previous Version | Graphics & Text | Print | Product List | Glossary On
Versions: 1 2 3 4 5 6 7 8 9 10 11 12 13 14 15 16 17 18 19 20 21 22
823
FTUS43 KABR 231120
TAFPIR
TAF
KPIR 231120Z 2312/2412 14010KT P6SM SCT110 BKN250
     FM232100 07009KT P6SM BKN045
     FM240000 02011KT P6SM BKN040
     FM240400 36012G19KT P6SM OVC025=

USA.gov is the U.S. government's official web portal to all federal, state and local government web resources and services.